Time;durP1;ratioP1;P1;durP2;ratioP2;P2;SDS_P1;SDS_P2;PMS_P1;PMS_P2;Temp;Humidity;BMP_temperature;BMP_pressure;BME280_temperature;BME280_humidity;BME280_pressure;Samples;Min_cycle;Max_cycle;Signal;HPM_P1;HPM_P2
2021/07/09 00:01:18;;;;;;;4.63;3.83;;;;;;;19.44;66.92;101202.19;5087008;28;20416;-71
2021/07/09 00:03:43;;;;;;;4.40;3.97;;;;;;;19.31;66.97;101185.91;5086875;28;20028;-70
2021/07/09 00:06:09;;;;;;;7.30;4.28;;;;;;;19.35;67.08;101196.34;5087101;28;20069;-70
2021/07/09 00:08:34;;;;;;;7.20;4.07;;;;;;;19.28;67.62;101180.75;5086859;28;20021;-70
2021/07/09 00:11:00;;;;;;;7.55;4.47;;;;;;;19.27;67.75;101183.44;5086611;28;20033;-69
2021/07/09 00:13:25;;;;;;;6.93;4.93;;;;;;;19.25;67.90;101180.84;5086647;28;20031;-70
2021/07/09 00:15:51;;;;;;;5.80;4.88;;;;;;;19.24;67.81;101189.69;5086476;28;20029;-70
2021/07/09 00:18:17;;;;;;;7.97;4.70;;;;;;;19.21;68.22;101176.63;5086438;28;20435;-70
2021/07/09 00:20:42;;;;;;;5.13;4.50;;;;;;;19.20;68.14;101167.00;5086405;28;20082;-70
2021/07/09 00:23:08;;;;;;;8.70;4.93;;;;;;;19.20;68.12;101167.00;5086308;28;20017;-70
2021/07/09 00:25:33;;;;;;;8.15;4.78;;;;;;;19.20;68.16;101174.91;5086449;28;20080;-71
2021/07/09 00:27:59;;;;;;;5.95;4.50;;;;;;;19.18;68.42;101180.22;5086311;28;20361;-70
2021/07/09 00:30:24;;;;;;;7.40;5.13;;;;;;;19.15;68.65;101187.34;5086432;28;20369;-70
2021/07/09 00:32:49;;;;;;;11.80;5.13;;;;;;;19.08;69.28;101176.13;5086340;28;20066;-70
2021/07/09 00:35:15;;;;;;;5.28;4.78;;;;;;;19.02;69.61;101179.81;5086352;28;20021;-70
2021/07/09 00:37:40;;;;;;;7.90;4.95;;;;;;;18.92;69.96;101184.50;5086235;28;20028;-71
2021/07/09 00:40:07;;;;;;;6.50;5.07;;;;;;;18.86;69.89;101182.06;5086454;28;20032;-71
2021/07/09 00:42:33;;;;;;;6.68;5.00;;;;;;;18.75;70.40;101177.13;5086193;28;20024;-70
2021/07/09 00:44:59;;;;;;;6.90;4.90;;;;;;;18.77;70.57;101206.88;5086132;28;20035;-70
2021/07/09 00:47:25;;;;;;;5.18;4.70;;;;;;;18.74;70.81;101212.22;5085933;28;20034;-70
2021/07/09 00:49:50;;;;;;;7.03;5.63;;;;;;;18.72;70.76;101213.19;5086121;28;20076;-70
2021/07/09 00:52:16;;;;;;;6.47;5.07;;;;;;;18.68;70.99;101212.41;5085697;28;20033;-70
2021/07/09 00:54:42;;;;;;;8.02;5.55;;;;;;;18.57;70.87;101204.84;5084559;28;20055;-70
2021/07/09 00:57:07;;;;;;;7.47;5.38;;;;;;;18.55;71.16;101202.25;5085832;28;20024;-68
2021/07/09 00:59:32;;;;;;;5.88;5.20;;;;;;;18.52;71.83;101210.22;5085984;28;20027;-70
2021/07/09 01:01:59;;;;;;;6.95;4.93;;;;;;;18.46;71.82;101215.66;5084610;28;20481;-69
2021/07/09 01:04:25;;;;;;;5.50;5.00;;;;;;;18.31;72.41;101212.56;5085927;28;20495;-69
2021/07/09 01:06:50;;;;;;;5.38;4.70;;;;;;;18.23;72.73;101211.91;5085746;28;20028;-70
2021/07/09 01:09:16;;;;;;;9.00;5.65;;;;;;;18.15;72.89;101204.25;5085119;28;20077;-69
2021/07/09 01:11:45;;;;;;;6.00;5.35;;;;;;;18.11;73.10;101212.22;5085660;28;20044;-71
2021/07/09 01:14:10;;;;;;;7.60;5.38;;;;;;;18.07;73.40;101221.94;5085544;28;20033;-70
2021/07/09 01:16:36;;;;;;;5.68;5.07;;;;;;;17.98;73.64;101217.81;5084246;28;20025;-70
2021/07/09 01:19:07;;;;;;;6.18;5.07;;;;;;;17.92;73.76;101210.09;5085521;28;20037;-70
2021/07/09 01:21:33;;;;;;;6.15;5.28;;;;;;;17.88;73.95;101201.44;5085359;28;20054;-70
2021/07/09 01:24:04;;;;;;;7.38;5.63;;;;;;;17.84;74.00;101200.63;5085357;28;20024;-70
2021/07/09 01:26:30;;;;;;;7.93;5.55;;;;;;;17.82;74.31;101193.72;5085651;28;20020;-70
2021/07/09 01:28:56;;;;;;;7.18;5.22;;;;;;;17.81;74.05;101200.72;5085340;28;20024;-68
2021/07/09 01:31:21;;;;;;;8.13;5.03;;;;;;;17.79;74.13;101202.53;5085508;28;20016;-70
2021/07/09 01:33:46;;;;;;;5.57;4.82;;;;;;;17.75;74.22;101200.88;5085314;28;20059;-70
2021/07/09 01:36:12;;;;;;;5.45;4.53;;;;;;;17.68;74.46;101194.06;5085135;28;20025;-70
2021/07/09 01:38:37;;;;;;;8.05;5.43;;;;;;;17.70;74.46;101208.00;5085032;28;20025;-71
2021/07/09 01:41:03;;;;;;;6.20;5.55;;;;;;;17.66;74.58;101202.00;5085090;28;20032;-70
2021/07/09 01:43:29;;;;;;;7.97;4.82;;;;;;;17.65;74.65;101204.66;5085009;28;20035;-70
2021/07/09 01:45:55;;;;;;;5.38;4.88;;;;;;;17.62;74.80;101192.44;5085181;28;20032;-70
2021/07/09 01:48:20;;;;;;;6.35;5.07;;;;;;;17.60;74.73;101186.41;5084929;28;20044;-70
2021/07/09 01:50:46;;;;;;;5.65;5.15;;;;;;;17.61;74.85;101203.00;5084709;28;20049;-70
2021/07/09 01:53:11;;;;;;;5.93;4.90;;;;;;;17.63;74.74;101211.72;5084632;28;20028;-70
2021/07/09 01:55:36;;;;;;;6.93;5.05;;;;;;;17.60;74.63;101191.66;5084800;28;20413;-69
2021/07/09 01:58:02;;;;;;;6.93;5.40;;;;;;;17.60;74.74;101194.28;5084656;28;20016;-69
2021/07/09 02:00:28;;;;;;;5.00;4.50;;;;;;;17.57;74.58;101189.94;5084978;28;20024;-69
2021/07/09 02:02:53;;;;;;;6.30;4.85;;;;;;;17.57;74.65;101182.06;5084402;28;20024;-69
2021/07/09 02:05:21;;;;;;;5.47;4.70;;;;;;;17.57;74.62;101178.59;5084573;28;20032;-69
2021/07/09 02:07:50;;;;;;;6.30;4.88;;;;;;;17.54;74.28;101171.66;5084599;28;20029;-69
2021/07/09 02:10:18;;;;;;;8.02;4.53;;;;;;;17.54;74.34;101179.53;5084475;28;20032;-70
2021/07/09 02:12:44;;;;;;;5.57;5.03;;;;;;;17.52;74.46;101178.72;5084660;28;20031;-69
2021/07/09 02:15:14;;;;;;;6.80;4.88;;;;;;;17.54;74.36;101176.06;5084516;28;20017;-70
2021/07/09 02:17:41;;;;;;;5.97;5.15;;;;;;;17.51;74.55;101169.09;5084409;28;20051;-69
2021/07/09 02:20:08;;;;;;;5.55;4.85;;;;;;;17.49;74.49;101162.19;5082487;28;20387;-71
2021/07/09 02:22:34;;;;;;;5.85;4.85;;;;;;;17.43;74.79;101155.31;5084095;28;20081;-70
2021/07/09 02:24:59;;;;;;;8.75;5.65;;;;;;;17.43;74.77;101161.44;5084071;28;20036;-68
2021/07/09 02:27:25;;;;;;;5.85;5.25;;;;;;;17.40;74.52;101150.13;5084361;28;20111;-69
2021/07/09 02:29:53;;;;;;;7.70;5.82;;;;;;;17.44;74.57;101157.88;5083984;28;20047;-69
2021/07/09 02:32:19;;;;;;;6.25;5.40;;;;;;;17.45;74.58;101157.00;5084240;28;20027;-69
2021/07/09 02:34:44;;;;;;;6.80;5.40;;;;;;;17.43;74.37;101150.06;5084198;28;20033;-70
2021/07/09 02:37:11;;;;;;;6.10;5.50;;;;;;;17.49;74.33;101149.94;5084202;28;20035;-70
2021/07/09 02:39:40;;;;;;;6.60;5.15;;;;;;;17.53;74.28;101151.56;5082694;28;20070;-70
2021/07/09 02:42:05;;;;;;;8.27;4.95;;;;;;;17.56;74.37;101147.97;5083859;28;20021;-70
2021/07/09 02:44:31;;;;;;;7.10;5.63;;;;;;;17.61;74.28;101158.38;5083705;28;20519;-70
2021/07/09 02:46:57;;;;;;;8.25;6.00;;;;;;;17.59;74.25;101159.28;5083818;28;20028;-69
2021/07/09 02:49:22;;;;;;;9.13;6.03;;;;;;;17.61;74.29;101155.75;5083755;28;20029;-69
2021/07/09 02:51:48;;;;;;;6.75;6.05;;;;;;;17.63;74.25;101159.19;5083681;28;20048;-70
2021/07/09 02:54:14;;;;;;;6.20;5.60;;;;;;;17.62;74.12;101160.09;5083815;28;20414;-68
2021/07/09 02:56:39;;;;;;;6.70;5.60;;;;;;;17.62;74.08;101157.47;5083928;28;20028;-69
2021/07/09 02:59:05;;;;;;;5.72;5.15;;;;;;;17.61;74.26;101166.25;5083790;28;20046;-69
2021/07/09 03:01:30;;;;;;;6.35;5.30;;;;;;;17.59;74.35;101164.53;5083837;28;20028;-69
2021/07/09 03:03:56;;;;;;;6.57;5.80;;;;;;;17.60;74.38;101165.41;5083508;28;20047;-69
2021/07/09 03:06:22;;;;;;;5.90;5.30;;;;;;;17.64;74.46;101166.16;5083635;28;20504;-69
2021/07/09 03:08:48;;;;;;;7.40;5.43;;;;;;;17.66;74.22;101165.25;5083410;28;20035;-69
2021/07/09 03:11:14;;;;;;;7.05;4.85;;;;;;;17.71;74.30;101168.63;5083628;28;20032;-70
2021/07/09 03:13:39;;;;;;;6.50;4.47;;;;;;;17.73;74.43;101171.19;5083517;28;20027;-69
2021/07/09 03:16:05;;;;;;;4.80;4.40;;;;;;;17.80;74.30;101164.88;5082087;28;20031;-70
2021/07/09 03:18:30;;;;;;;4.85;4.07;;;;;;;17.95;73.85;101149.59;5083573;28;20054;-70
2021/07/09 03:20:56;;;;;;;6.63;4.20;;;;;;;18.10;73.69;101153.53;5083456;28;20020;-70
2021/07/09 03:23:21;;;;;;;5.68;3.70;;;;;;;18.25;73.25;101151.41;5083276;28;20024;-71
2021/07/09 03:25:47;;;;;;;4.85;3.97;;;;;;;18.35;72.68;101147.63;5083416;28;20051;-70
2021/07/09 03:28:12;;;;;;;7.50;4.32;;;;;;;18.36;72.44;101159.00;5083149;28;20221;-71
2021/07/09 03:30:38;;;;;;;4.95;3.95;;;;;;;18.47;71.51;101150.81;5083034;28;20024;-70
2021/07/09 03:33:04;;;;;;;5.32;3.72;;;;;;;18.58;71.49;101146.06;5081847;28;20042;-71
2021/07/09 03:35:29;;;;;;;4.90;3.65;;;;;;;18.77;71.02;101154.25;5083490;28;20076;-69
2021/07/09 03:37:55;;;;;;;7.00;3.33;;;;;;;18.92;70.15;101154.69;5082017;28;20032;-71
2021/07/09 03:40:20;;;;;;;5.00;3.58;;;;;;;18.97;69.30;101158.03;5081923;28;20027;-70
2021/07/09 03:42:46;;;;;;;5.72;3.58;;;;;;;18.94;69.54;101152.88;5083079;28;20031;-70
2021/07/09 03:45:11;;;;;;;4.38;3.80;;;;;;;18.99;69.72;101142.22;5081870;28;20476;-70
2021/07/09 03:47:37;;;;;;;5.68;4.18;;;;;;;19.11;69.41;101136.56;5083226;28;20078;-71
2021/07/09 03:50:05;;;;;;;8.63;3.53;;;;;;;19.36;69.05;101124.38;5083154;28;20033;-70
2021/07/09 03:52:31;;;;;;;5.78;3.25;;;;;;;19.73;68.34;101123.06;5081830;28;20052;-69
2021/07/09 03:54:57;;;;;;;5.82;2.92;;;;;;;20.23;67.35;101131.00;5081760;28;20093;-70
2021/07/09 03:57:22;;;;;;;5.25;3.60;;;;;;;20.56;65.45;101128.84;5083304;28;20089;-71
2021/07/09 03:59:47;;;;;;;4.07;3.05;;;;;;;20.70;64.13;101138.00;5083162;28;20048;-71
2021/07/09 04:02:13;;;;;;;4.60;3.17;;;;;;;20.69;63.29;101138.91;5082851;28;20017;-70
2021/07/09 04:04:40;;;;;;;3.75;3.08;;;;;;;20.81;63.06;101146.31;5082922;28;20034;-70
2021/07/09 04:07:05;;;;;;;4.30;2.90;;;;;;;21.08;63.18;101142.69;5083172;28;20029;-70
2021/07/09 04:09:31;;;;;;;3.65;2.47;;;;;;;21.45;62.15;101145.56;5082991;28;20091;-69
2021/07/09 04:11:56;;;;;;;4.55;2.92;;;;;;;21.83;61.54;101136.06;5081560;28;20044;-69
2021/07/09 04:14:22;;;;;;;4.35;2.72;;;;;;;22.21;60.03;101137.88;5083289;28;20059;-70
2021/07/09 04:16:47;;;;;;;5.20;2.38;;;;;;;22.63;59.59;101144.78;5082940;28;20078;-69
2021/07/09 04:19:13;;;;;;;5.03;2.17;;;;;;;23.10;57.10;101146.97;5082664;28;20088;-70
2021/07/09 04:21:39;;;;;;;5.60;2.33;;;;;;;23.27;55.30;101149.59;5082926;28;20508;-71
2021/07/09 04:24:04;;;;;;;3.83;2.30;;;;;;;23.21;54.08;101154.38;5082665;28;20030;-71
2021/07/09 04:26:30;;;;;;;5.65;2.67;;;;;;;23.12;54.26;101153.91;5082897;28;20091;-71
2021/07/09 04:28:55;;;;;;;4.63;2.22;;;;;;;23.03;54.18;101149.91;5082859;28;20020;-71
2021/07/09 04:31:20;;;;;;;2.60;2.20;;;;;;;23.13;54.44;101147.66;5082630;28;20111;-70
2021/07/09 04:33:47;;;;;;;3.03;2.28;;;;;;;23.32;52.71;101154.69;5082819;28;20239;-70
2021/07/09 04:36:12;;;;;;;4.05;2.30;;;;;;;23.43;52.70;101143.59;5082600;28;20028;-71
2021/07/09 04:38:38;;;;;;;5.82;2.60;;;;;;;23.44;51.77;101139.13;5082845;28;20036;-72
2021/07/09 04:41:03;;;;;;;4.03;2.25;;;;;;;23.44;52.16;101144.41;5082751;28;20461;-73
2021/07/09 04:43:29;;;;;;;4.28;2.45;;;;;;;23.67;51.76;101143.25;5084035;28;20052;-70
2021/07/09 04:45:54;;;;;;;2.65;2.10;;;;;;;23.86;50.56;101139.63;5086150;28;20044;-70
2021/07/09 04:48:21;;;;;;;2.97;1.88;;;;;;;24.14;50.44;101140.78;5086179;28;20511;-72
2021/07/09 04:50:47;;;;;;;3.63;1.80;;;;;;;24.54;48.91;101136.91;5085901;28;20109;-72
2021/07/09 04:53:12;;;;;;;3.38;1.70;;;;;;;25.00;47.77;101134.28;5086011;28;20504;-71
2021/07/09 04:55:37;;;;;;;5.10;1.63;;;;;;;25.59;47.64;101134.44;5086442;28;20008;-71
2021/07/09 04:58:03;;;;;;;3.80;2.20;;;;;;;26.34;45.61;101127.22;5086131;28;20382;-71
2021/07/09 05:00:29;;;;;;;4.53;1.67;;;;;;;27.12;44.62;101134.66;5086146;28;20455;-71
2021/07/09 05:02:58;;;;;;;4.40;2.05;;;;;;;27.84;43.65;101134.19;5085980;28;20096;-71
2021/07/09 05:05:24;;;;;;;3.00;1.85;;;;;;;28.30;41.44;101131.00;5085888;28;20127;-65
2021/07/09 05:07:49;;;;;;;6.05;1.85;;;;;;;28.72;40.75;101136.00;5085928;28;20107;-69
2021/07/09 05:10:15;;;;;;;3.30;2.00;;;;;;;29.16;39.43;101143.47;5085596;28;20400;-67
2021/07/09 05:12:41;;;;;;;3.97;1.77;;;;;;;29.49;38.55;101143.66;5085836;28;20047;-68
2021/07/09 05:15:07;;;;;;;6.53;2.05;;;;;;;29.72;38.06;101138.34;5085438;28;20031;-68
2021/07/09 05:17:32;;;;;;;2.25;1.70;;;;;;;30.03;37.11;101136.75;5085469;28;20025;-68
2021/07/09 05:19:57;;;;;;;2.72;1.75;;;;;;;30.38;36.67;101129.56;5085697;28;20045;-67
2021/07/09 05:22:23;;;;;;;8.25;1.83;;;;;;;30.73;36.37;101130.28;5085578;28;20581;-68
2021/07/09 05:24:54;;;;;;;2.40;1.50;;;;;;;31.33;35.98;101128.88;5085211;28;20025;-67
2021/07/09 05:27:21;;;;;;;2.50;1.60;;;;;;;31.98;34.35;101121.63;5085464;28;20025;-68
2021/07/09 05:29:47;;;;;;;4.88;1.50;;;;;;;32.23;32.91;101116.72;5085780;28;20052;-67
2021/07/09 05:32:12;;;;;;;4.10;1.90;;;;;;;32.29;32.81;101129.59;5085137;28;20047;-65
2021/07/09 05:34:37;;;;;;;4.95;1.50;;;;;;;32.46;32.82;101137.97;5085465;28;20025;-67
2021/07/09 05:37:03;;;;;;;7.03;2.03;;;;;;;32.73;31.87;101139.13;5085555;28;20028;-67
2021/07/09 05:39:31;;;;;;;3.63;1.45;;;;;;;32.84;31.51;101133.63;5085337;28;20028;-69
2021/07/09 05:41:58;;;;;;;2.30;1.42;;;;;;;32.92;31.24;101135.59;5085157;28;20659;-69
2021/07/09 05:44:23;;;;;;;2.95;1.52;;;;;;;33.02;30.91;101131.03;5084972;28;20025;-67
2021/07/09 05:46:49;;;;;;;4.80;1.77;;;;;;;32.75;30.86;101137.16;5085129;28;20066;-67
2021/07/09 05:49:15;;;;;;;6.63;1.83;;;;;;;32.47;30.85;101126.22;5085020;28;20107;-66
2021/07/09 05:51:41;;;;;;;3.38;1.40;;;;;;;32.40;31.03;101132.16;5083319;28;20101;-66
2021/07/09 05:54:06;;;;;;;3.00;1.67;;;;;;;32.17;31.16;101120.81;5084788;28;20078;-66
2021/07/09 05:56:31;;;;;;;3.33;1.70;;;;;;;32.13;31.85;101120.22;5084835;28;20028;-66
2021/07/09 05:58:57;;;;;;;2.75;1.38;;;;;;;32.20;31.29;101109.78;5085131;28;20032;-67
2021/07/09 06:01:22;;;;;;;3.78;1.55;;;;;;;32.00;32.07;101108.88;5084762;28;20028;-66
2021/07/09 06:03:48;;;;;;;4.13;1.90;;;;;;;32.35;31.18;101102.16;5084953;28;20035;-67
2021/07/09 06:06:13;;;;;;;4.20;1.63;;;;;;;32.70;30.18;101099.09;5083098;28;20031;-67
2021/07/09 06:08:39;;;;;;;2.75;1.40;;;;;;;32.88;30.44;101104.59;5084014;28;20024;-67
2021/07/09 06:11:04;;;;;;;2.50;1.50;;;;;;;32.96;30.14;101106.56;5084464;28;20056;-67
2021/07/09 06:13:30;;;;;;;6.25;1.75;;;;;;;32.70;29.67;101108.00;5083110;28;20021;-67
2021/07/09 06:15:58;;;;;;;4.30;2.03;;;;;;;32.67;29.89;101104.75;5084395;28;20028;-67
2021/07/09 06:18:24;;;;;;;8.68;1.95;;;;;;;32.85;30.08;101096.81;5084340;28;20021;-66
2021/07/09 06:20:49;;;;;;;2.75;1.58;;;;;;;33.17;29.71;101102.88;5084514;28;20048;-66
2021/07/09 06:23:15;;;;;;;4.82;1.63;;;;;;;33.27;29.70;101101.00;5084355;28;20028;-67
2021/07/09 06:25:41;;;;;;;3.67;1.88;;;;;;;33.69;29.36;101096.22;5084342;28;20024;-67
2021/07/09 06:28:06;;;;;;;5.95;1.77;;;;;;;33.86;28.76;101099.94;5084230;28;20054;-65
2021/07/09 06:30:32;;;;;;;4.80;1.63;;;;;;;33.62;28.49;101107.56;5084334;28;20039;-65
2021/07/09 06:32:57;;;;;;;3.70;1.75;;;;;;;33.38;28.41;101110.75;5084354;28;20032;-66
2021/07/09 06:35:28;;;;;;;2.50;1.88;;;;;;;33.24;29.22;101114.75;5084031;28;20024;-67
2021/07/09 06:37:54;;;;;;;4.20;1.73;;;;;;;33.25;29.01;101113.75;5084048;28;20017;-66
2021/07/09 06:40:19;;;;;;;6.80;1.95;;;;;;;33.33;28.55;101115.69;5084101;28;20028;-66
2021/07/09 06:42:45;;;;;;;4.68;1.40;;;;;;;33.03;29.44;101115.75;5083626;28;20107;-66
2021/07/09 06:45:11;;;;;;;3.95;1.80;;;;;;;33.29;29.69;101117.00;5084122;28;20017;-66
2021/07/09 06:47:36;;;;;;;4.85;1.50;;;;;;;33.63;28.72;101117.34;5083957;28;20416;-66
2021/07/09 06:50:01;;;;;;;4.75;1.48;;;;;;;33.80;27.72;101114.84;5083876;28;20055;-66
2021/07/09 06:52:27;;;;;;;2.63;1.70;;;;;;;33.15;27.83;101119.16;5083719;28;20120;-66
2021/07/09 06:54:52;;;;;;;3.22;1.77;;;;;;;32.48;28.57;101117.16;5083604;28;20096;-64
2021/07/09 06:57:18;;;;;;;3.95;1.60;;;;;;;31.85;29.37;101111.09;5083772;28;20024;-65
2021/07/09 06:59:44;;;;;;;4.82;1.42;;;;;;;31.46;29.57;101111.75;5083674;28;20469;-64
2021/07/09 07:02:11;;;;;;;4.00;1.55;;;;;;;31.20;30.17;101117.53;5082342;28;20032;-64
2021/07/09 07:04:37;;;;;;;4.00;1.58;;;;;;;30.72;30.61;101125.06;5083264;28;20058;-63
2021/07/09 07:07:02;;;;;;;5.65;1.45;;;;;;;30.62;31.17;101116.94;5083015;28;20032;-64
2021/07/09 07:09:30;;;;;;;4.68;1.50;;;;;;;30.75;31.04;101124.81;5083480;28;20031;-65
2021/07/09 07:12:01;;;;;;;2.92;1.45;;;;;;;31.16;30.67;101117.81;5083880;28;20028;-65
2021/07/09 07:14:27;;;;;;;3.80;1.60;;;;;;;31.45;30.93;101120.78;5083209;28;20029;-66
2021/07/09 07:16:53;;;;;;;1.67;1.50;;;;;;;31.71;30.09;101126.56;5083421;28;20032;-66
2021/07/09 07:19:18;;;;;;;4.80;1.75;;;;;;;31.96;30.21;101123.56;5083268;28;20029;-66
2021/07/09 07:21:43;;;;;;;3.22;1.77;;;;;;;31.99;29.61;101128.66;5083288;28;20021;-65
2021/07/09 07:24:09;;;;;;;4.80;1.80;;;;;;;31.65;30.66;101122.59;5083452;28;20027;-64
2021/07/09 07:26:34;;;;;;;3.35;1.75;;;;;;;32.07;30.08;101123.47;5083217;28;20028;-65
2021/07/09 07:29:00;;;;;;;4.05;1.58;;;;;;;32.18;29.21;101121.63;5083219;28;20452;-65
2021/07/09 07:31:25;;;;;;;2.85;1.70;;;;;;;32.12;29.31;101123.06;5083160;28;20051;-65
2021/07/09 07:33:51;;;;;;;5.22;2.00;;;;;;;31.76;29.65;101124.31;5082875;28;20304;-65
2021/07/09 07:36:18;;;;;;;2.72;1.50;;;;;;;31.41;30.78;101121.06;5083128;28;20020;-65
2021/07/09 07:38:45;;;;;;;2.63;1.63;;;;;;;31.75;31.13;101121.78;5083331;28;20016;-66
2021/07/09 07:41:12;;;;;;;5.82;1.98;;;;;;;32.23;29.91;101122.94;5083052;28;20016;-64
2021/07/09 07:43:37;;;;;;;6.65;2.05;;;;;;;32.38;29.54;101123.38;5082954;28;20021;-65
2021/07/09 07:46:06;;;;;;;3.97;1.63;;;;;;;32.63;29.33;101123.88;5083267;28;20020;-65
2021/07/09 07:48:32;;;;;;;2.92;1.40;;;;;;;32.99;29.12;101117.88;5083421;28;20024;-66
2021/07/09 07:50:57;;;;;;;5.47;1.45;;;;;;;33.19;28.75;101122.41;5083028;28;20123;-66
2021/07/09 07:53:22;;;;;;;2.05;1.38;;;;;;;33.74;28.21;101112.78;5081888;28;20465;-67
2021/07/09 07:55:48;;;;;;;3.58;2.08;;;;;;;33.88;26.41;101109.53;5083079;28;20020;-67
2021/07/09 07:58:13;;;;;;;2.10;1.33;;;;;;;33.50;26.97;101117.63;5081565;28;20485;-66
2021/07/09 08:00:38;;;;;;;3.90;1.73;;;;;;;33.24;28.62;101115.59;5082953;28;20028;-66
2021/07/09 08:03:04;;;;;;;3.50;2.05;;;;;;;33.60;26.85;101105.97;5082922;28;20032;-67
2021/07/09 08:05:29;;;;;;;2.17;1.30;;;;;;;33.50;27.77;101095.28;5082819;28;20108;-65
2021/07/09 08:07:55;;;;;;;4.30;1.50;;;;;;;33.33;26.78;101103.13;5082678;28;20492;-66
2021/07/09 08:10:22;;;;;;;3.95;1.90;;;;;;;33.27;27.07;101098.31;5082823;28;20078;-65
2021/07/09 08:12:48;;;;;;;3.03;1.50;;;;;;;33.47;27.49;101092.84;5082879;28;20016;-66
2021/07/09 08:15:13;;;;;;;3.08;1.63;;;;;;;33.62;26.74;101086.03;5082781;28;20127;-65
2021/07/09 08:17:39;;;;;;;3.45;1.75;;;;;;;33.32;26.65;101081.72;5081721;28;20055;-65
2021/07/09 08:20:06;;;;;;;4.25;1.48;;;;;;;32.84;27.39;101085.22;5086692;28;20107;-65
2021/07/09 08:22:32;;;;;;;3.33;1.60;;;;;;;32.86;27.48;101075.16;5086687;28;20036;-65
2021/07/09 08:24:57;;;;;;;5.68;1.55;;;;;;;32.93;27.05;101086.19;5086207;28;20028;-65
2021/07/09 08:27:23;;;;;;;4.28;1.95;;;;;;;32.63;27.10;101078.16;5086608;28;20086;-64
2021/07/09 08:29:48;;;;;;;2.35;1.45;;;;;;;32.32;28.76;101086.31;5086489;28;20024;-64
2021/07/09 08:32:13;;;;;;;2.78;1.75;;;;;;;32.18;28.40;101078.66;5086362;28;20016;-64
2021/07/09 08:34:39;;;;;;;5.32;1.92;;;;;;;31.64;29.15;101072.59;5086158;28;20032;-64
2021/07/09 08:37:05;;;;;;;3.30;1.58;;;;;;;31.56;29.09;101074.25;5085928;28;20084;-64
2021/07/09 08:39:30;;;;;;;4.78;1.67;;;;;;;30.89;29.70;101084.31;5086173;28;20044;-64
2021/07/09 08:41:56;;;;;;;4.50;1.67;;;;;;;30.21;30.09;101073.84;5086045;28;20040;-62
2021/07/09 08:44:22;;;;;;;3.55;1.50;;;;;;;30.23;30.66;101071.88;5086091;28;20028;-62
2021/07/09 08:46:48;;;;;;;3.78;1.85;;;;;;;30.46;30.58;101075.34;5086419;28;20103;-63
2021/07/09 08:49:16;;;;;;;3.95;1.83;;;;;;;30.89;29.70;101072.75;5086205;28;20024;-63
2021/07/09 08:51:43;;;;;;;1.80;1.10;;;;;;;31.42;29.01;101070.97;5085771;28;20049;-63
2021/07/09 08:54:11;;;;;;;2.20;1.27;;;;;;;31.76;28.10;101080.53;5086003;28;20056;-63
2021/07/09 08:56:36;;;;;;;3.25;1.20;;;;;;;31.72;28.14;101071.91;5084753;28;20099;-63
2021/07/09 08:59:02;;;;;;;2.10;1.50;;;;;;;32.15;27.80;101069.94;5084627;28;20488;-63
2021/07/09 09:01:27;;;;;;;1.73;1.40;;;;;;;32.80;26.76;101080.28;5085828;28;20047;-63
2021/07/09 09:04:05;;;;;;;4.13;1.42;;;;;;;33.05;26.74;101064.50;5085739;28;20051;-63
2021/07/09 09:06:31;;;;;;;5.28;1.90;;;;;;;33.22;25.84;101057.56;5086075;28;20043;-63
2021/07/09 09:08:56;;;;;;;4.38;1.65;;;;;;;33.10;25.86;101065.78;5085914;28;20320;-63
2021/07/09 09:11:24;;;;;;;5.18;1.60;;;;;;;32.39;26.12;101055.25;5085599;28;20103;-63
2021/07/09 09:13:53;;;;;;;6.28;1.90;;;;;;;31.39;28.00;101053.28;5085616;28;20357;-64
2021/07/09 09:16:18;;;;;;;2.70;1.63;;;;;;;31.49;28.46;101041.75;5085685;28;20389;-63
2021/07/09 09:18:45;;;;;;;4.05;1.55;;;;;;;31.97;28.58;101042.03;5085622;28;20020;-64
2021/07/09 09:21:14;;;;;;;2.92;1.40;;;;;;;32.83;27.84;101040.50;5085643;28;20031;-64
2021/07/09 09:23:51;;;;;;;3.28;1.42;;;;;;;33.61;26.26;101041.25;5085074;28;20012;-64
2021/07/09 09:26:38;;;;;;;2.33;0.98;;;;;;;34.15;24.74;101025.31;5085090;28;20017;-64
2021/07/09 09:29:03;;;;;;;2.75;1.20;;;;;;;33.98;24.65;101026.00;5085302;28;20570;-64
2021/07/09 09:31:34;;;;;;;3.20;1.40;;;;;;;33.94;24.73;101021.09;5085621;28;20037;-63
2021/07/09 09:34:04;;;;;;;4.32;1.30;;;;;;;34.18;25.92;101019.66;5085307;28;20020;-64
2021/07/09 09:36:30;;;;;;;3.97;1.42;;;;;;;34.81;24.54;101015.09;5085289;28;20032;-65
2021/07/09 09:38:59;;;;;;;2.13;1.48;;;;;;;34.96;23.99;101020.78;5085352;28;20028;-64
2021/07/09 09:41:25;;;;;;;4.13;1.73;;;;;;;34.36;24.11;101015.09;5085519;28;20016;-63
2021/07/09 09:43:51;;;;;;;3.83;1.60;;;;;;;33.86;24.81;101014.63;5085105;28;20028;-63
2021/07/09 09:46:26;;;;;;;1.73;1.27;;;;;;;33.47;25.67;101020.19;5085199;28;20025;-64
2021/07/09 09:48:51;;;;;;;3.65;1.10;;;;;;;33.54;25.01;101018.63;5085329;28;20027;-64
2021/07/09 09:51:31;;;;;;;4.63;1.27;;;;;;;33.97;24.62;101010.00;5085000;28;20045;-64
2021/07/09 09:54:02;;;;;;;5.05;1.30;;;;;;;33.69;23.42;101010.88;5084842;28;20025;-64
2021/07/09 09:56:34;;;;;;;3.95;1.10;;;;;;;32.35;24.29;101004.63;5084879;28;20035;-64
2021/07/09 09:59:22;;;;;;;2.78;1.30;;;;;;;31.16;25.33;101005.19;5084875;28;20028;-64
2021/07/09 10:01:58;;;;;;;3.13;1.10;;;;;;;30.55;26.50;101001.41;5084839;28;20070;-63
2021/07/09 10:04:26;;;;;;;4.43;1.55;;;;;;;30.49;26.86;100988.53;5084750;28;20103;-64
2021/07/09 10:06:52;;;;;;;2.33;1.10;;;;;;;31.49;26.20;100990.75;5084626;28;20024;-63
2021/07/09 10:09:19;;;;;;;4.45;1.17;;;;;;;32.26;26.56;100979.44;5084384;28;20043;-64
2021/07/09 10:11:45;;;;;;;2.95;1.25;;;;;;;32.48;25.74;100983.66;5084245;28;20099;-64
2021/07/09 10:14:13;;;;;;;2.63;1.20;;;;;;;31.78;25.27;100988.16;5084570;28;20032;-64
2021/07/09 10:16:41;;;;;;;2.78;1.30;;;;;;;30.63;25.90;100982.84;5084878;28;20020;-63
2021/07/09 10:19:11;;;;;;;2.45;1.20;;;;;;;29.59;26.75;100986.84;5084675;28;20031;-65
2021/07/09 10:21:38;;;;;;;3.60;1.25;;;;;;;28.97;28.16;100983.66;5084494;28;20028;-64
2021/07/09 10:24:07;;;;;;;5.10;1.77;;;;;;;29.28;28.76;100976.75;5083203;28;20024;-65
2021/07/09 10:26:39;;;;;;;3.28;1.20;;;;;;;29.85;28.38;100972.31;5084378;28;20131;-66
2021/07/09 10:29:14;;;;;;;3.83;1.48;;;;;;;30.28;27.75;100967.94;5084327;28;20107;-66
2021/07/09 10:31:42;;;;;;;1.63;1.10;;;;;;;30.61;27.01;100959.84;5084300;28;20036;-65
2021/07/09 10:34:29;;;;;;;2.47;1.27;;;;;;;30.86;27.15;100950.56;5084347;28;20044;-65
2021/07/09 10:37:19;;;;;;;1.83;1.27;;;;;;;31.53;26.21;100944.78;5084382;28;20130;-66
2021/07/09 10:39:49;;;;;;;3.90;1.10;;;;;;;32.35;26.29;100943.66;5076414;28;20504;-62
2021/07/09 10:42:40;;;;;;;2.88;1.23;;;;;;;32.57;24.69;100939.00;5082782;28;20081;-64
2021/07/09 10:45:12;;;;;;;2.90;1.50;;;;;;;31.46;25.51;100938.25;5083894;28;20025;-65
2021/07/09 10:47:43;;;;;;;2.80;1.17;;;;;;;30.79;26.96;100944.91;5083914;28;20253;-65
2021/07/09 10:50:38;;;;;;;;;;;;;;;30.63;26.95;100937.31;5084434;28;20060;-64
2021/07/09 10:53:09;;;;;;;4.05;1.30;;;;;;;29.87;27.47;100936.44;5070614;28;19927;-64
2021/07/09 10:55:41;;;;;;;2.50;1.45;;;;;;;29.26;28.86;100948.44;5083874;28;20024;-65
2021/07/09 10:58:07;;;;;;;2.88;1.80;;;;;;;28.78;30.17;100948.53;5084228;28;20016;-66
2021/07/09 11:00:46;;;;;;;3.45;1.40;;;;;;;28.06;31.24;100953.00;5083847;28;20077;-67
2021/07/09 11:03:30;;;;;;;2.28;1.33;;;;;;;27.46;32.34;100954.56;5083754;28;20025;-64
2021/07/09 11:06:01;;;;;;;2.88;1.45;;;;;;;26.98;33.40;100950.78;5083660;28;20028;-64
2021/07/09 11:08:32;;;;;;;3.30;1.60;;;;;;;26.70;34.50;100951.84;5083772;28;20016;-66
2021/07/09 11:11:29;;;;;;;3.22;1.67;;;;;;;26.70;34.67;100954.50;5083690;28;20020;-66
2021/07/09 11:14:03;;;;;;;2.17;1.55;;;;;;;26.50;34.99;100961.19;5083879;28;20031;-66
2021/07/09 11:16:35;;;;;;;2.95;1.70;;;;;;;26.28;35.78;100960.78;5080598;28;20020;-66
2021/07/09 11:19:02;;;;;;;2.58;1.50;;;;;;;26.20;36.59;100958.63;5079765;28;20024;-65
2021/07/09 11:21:30;;;;;;;4.95;1.83;;;;;;;26.20;36.46;100955.13;5079446;28;20520;-66
2021/07/09 11:24:02;;;;;;;2.13;1.40;;;;;;;26.05;36.60;100951.66;5079869;28;20050;-66